createdAt,value
2019-05-03T00:01:25.979Z,22.02
2019-05-03T00:04:14.637Z,22.10
2019-05-03T00:06:53.722Z,22.58
2019-05-03T00:09:33.459Z,23.25
2019-05-03T00:12:08.447Z,25.27
2019-05-03T00:15:13.343Z,27.17
2019-05-03T00:20:42.026Z,30.88
2019-05-03T00:23:16.536Z,31.25
2019-05-03T00:25:52.331Z,32.80
2019-05-03T00:28:27.552Z,30.55
2019-05-03T00:31:02.671Z,29.80
2019-05-03T00:33:38.938Z,29.10
2019-05-03T00:36:15.332Z,30.15
2019-05-03T00:38:49.688Z,29.77
2019-05-03T00:41:24.702Z,32.48
2019-05-03T00:43:59.897Z,32.38
2019-05-03T00:49:08.787Z,35.40
2019-05-03T00:51:43.787Z,35.13
2019-05-03T00:54:16.165Z,34.67
2019-05-03T00:56:53.093Z,36.58
2019-05-03T00:59:29.568Z,35.60
2019-05-03T01:02:08.106Z,37.42
2019-05-03T01:04:42.723Z,33.83
2019-05-03T01:07:19.466Z,34.20
2019-05-03T01:09:55.546Z,35.50
2019-05-03T01:12:32.180Z,33.53
2019-05-03T01:15:14.440Z,34.48
2019-05-03T01:17:52.802Z,33.20
2019-05-03T01:20:27.093Z,34.23
2019-05-03T01:23:25.461Z,28.87
2019-05-03T01:26:02.503Z,26.42
2019-05-03T01:28:38.450Z,25.82
2019-05-03T01:31:22.727Z,26.87
2019-05-03T01:33:57.460Z,24.18
2019-05-03T01:36:35.058Z,17.45
2019-05-03T01:39:08.911Z,17.77
2019-05-03T01:42:17.339Z,17.55
2019-05-03T01:45:02.304Z,18.90
2019-05-03T01:47:48.650Z,16.30
2019-05-03T01:50:32.011Z,15.93
2019-05-03T01:53:07.466Z,16.82
2019-05-03T01:56:03.628Z,17.62
2019-05-03T01:58:44.702Z,17.42
2019-05-03T02:01:28.630Z,18.57
2019-05-03T02:04:05.243Z,17.50
2019-05-03T02:06:38.670Z,16.07
2019-05-03T02:09:12.219Z,15.43
2019-05-03T02:11:45.072Z,15.28
2019-05-03T02:14:17.345Z,16.00
2019-05-03T02:16:49.314Z,14.98
2019-05-03T02:19:22.903Z,15.83
2019-05-03T02:21:55.157Z,15.28
2019-05-03T02:24:28.481Z,15.65
2019-05-03T02:27:03.263Z,16.23
2019-05-03T02:29:38.342Z,15.78
2019-05-03T02:32:13.343Z,15.18
2019-05-03T02:34:50.161Z,14.40
2019-05-03T02:37:23.340Z,14.65
2019-05-03T02:39:58.803Z,13.75
2019-05-03T02:42:34.899Z,13.62
2019-05-03T02:45:12.273Z,14.98
2019-05-03T02:47:52.117Z,13.95
2019-05-03T02:50:28.859Z,15.35
2019-05-03T02:53:01.099Z,15.78
2019-05-03T02:55:35.925Z,15.70
2019-05-03T02:58:07.915Z,15.40
2019-05-03T03:01:00.059Z,15.50
2019-05-03T03:03:36.556Z,15.28
2019-05-03T03:06:10.853Z,15.30
2019-05-03T03:08:45.588Z,14.95
2019-05-03T03:11:19.867Z,14.05
2019-05-03T03:13:56.361Z,15.23
2019-05-03T03:16:32.090Z,15.50
2019-05-03T03:19:07.457Z,14.93
2019-05-03T03:21:48.297Z,15.05
2019-05-03T03:24:25.765Z,16.25
2019-05-03T03:27:05.323Z,14.93
2019-05-03T03:29:45.899Z,15.70
2019-05-03T03:32:38.653Z,15.32
2019-05-03T03:35:29.023Z,16.37
2019-05-03T03:38:06.266Z,16.73
2019-05-03T03:40:46.975Z,18.32
2019-05-03T03:43:26.003Z,18.85
2019-05-03T03:46:05.522Z,19.80
2019-05-03T03:48:45.981Z,20.95
2019-05-03T03:51:26.136Z,20.30
2019-05-03T03:54:06.073Z,22.30
2019-05-03T03:56:59.316Z,21.95
2019-05-03T03:59:30.152Z,22.32
2019-05-03T04:02:07.658Z,22.93
2019-05-03T04:04:46.003Z,23.05
2019-05-03T04:07:25.984Z,24.80
2019-05-03T04:10:01.240Z,22.80
2019-05-03T04:12:48.956Z,24.60
2019-05-03T04:15:45.293Z,23.25
2019-05-03T04:19:45.251Z,23.60
2019-05-03T04:22:17.861Z,23.98
2019-05-03T04:24:55.304Z,25.27
2019-05-03T04:27:28.695Z,25.95
2019-05-03T04:30:17.615Z,26.85
2019-05-03T04:32:56.179Z,26.73
2019-05-03T04:35:30.970Z,26.77
2019-05-03T04:38:09.015Z,25.02
2019-05-03T04:40:41.965Z,24.77
2019-05-03T04:43:16.528Z,22.85
2019-05-03T04:55:20.562Z,22.27
2019-05-03T04:58:00.108Z,17.77
2019-05-03T05:00:36.744Z,17.27
2019-05-03T05:03:10.228Z,17.57
2019-05-03T05:05:46.100Z,16.20
2019-05-03T05:08:26.773Z,17.65
2019-05-03T05:11:02.116Z,15.70
2019-05-03T05:13:40.338Z,16.10
2019-05-03T05:16:16.982Z,16.20
2019-05-03T05:19:15.186Z,15.38
2019-05-03T05:21:51.505Z,16.20
2019-05-03T05:24:34.505Z,16.00
2019-05-03T05:27:48.797Z,15.13
2019-05-03T05:33:29.534Z,12.95
2019-05-03T05:36:12.825Z,13.83
2019-05-03T05:41:29.523Z,10.80
2019-05-03T05:44:27.457Z,10.35
2019-05-03T05:47:15.011Z,8.95
2019-05-03T05:50:08.948Z,9.00
2019-05-03T05:52:45.644Z,8.45
2019-05-03T05:55:45.143Z,8.23
2019-05-03T05:58:30.098Z,8.20
2019-05-03T06:03:50.691Z,8.88
2019-05-03T06:06:45.184Z,9.88
2019-05-03T06:09:28.394Z,10.82
2019-05-03T06:12:04.433Z,10.68
2019-05-03T06:14:54.419Z,10.65
2019-05-03T06:17:31.448Z,10.10
2019-05-03T06:20:25.694Z,10.05
2019-05-03T06:23:16.738Z,9.98
2019-05-03T06:26:21.843Z,9.70
2019-05-03T06:31:50.305Z,10.30
2019-05-03T06:34:25.594Z,9.43
2019-05-03T06:37:41.001Z,10.68
2019-05-03T06:40:25.251Z,10.38
2019-05-03T06:43:08.455Z,11.15
2019-05-03T06:45:41.160Z,11.45
2019-05-03T06:48:17.733Z,11.33
2019-05-03T06:51:20.120Z,11.50
2019-05-03T06:54:20.443Z,9.13
2019-05-03T06:57:00.153Z,10.95
2019-05-03T06:59:50.350Z,10.65
2019-05-03T07:02:37.321Z,11.10
2019-05-03T07:05:12.182Z,11.12
2019-05-03T07:07:51.620Z,11.10
2019-05-03T07:10:29.255Z,11.25
2019-05-03T07:13:19.533Z,12.45
2019-05-03T07:16:51.098Z,11.97
2019-05-03T07:19:28.998Z,11.68
2019-05-03T07:22:06.694Z,13.78
2019-05-03T07:24:46.129Z,11.78
2019-05-03T07:27:26.765Z,12.65
2019-05-03T07:30:05.804Z,12.55
2019-05-03T07:32:46.972Z,12.82
2019-05-03T07:35:29.699Z,11.50
2019-05-03T07:38:11.000Z,10.88
2019-05-03T07:40:44.676Z,11.13
2019-05-03T07:43:27.434Z,9.98
2019-05-03T07:46:01.586Z,9.00
2019-05-03T07:51:14.561Z,7.83
2019-05-03T07:53:55.572Z,7.90
2019-05-03T07:56:41.851Z,6.97
2019-05-03T07:59:15.952Z,7.65
2019-05-03T08:01:54.606Z,7.90
2019-05-03T08:04:31.548Z,7.15
2019-05-03T08:07:19.924Z,8.05
2019-05-03T08:10:55.080Z,6.45
2019-05-03T08:13:55.022Z,5.85
2019-05-03T08:16:39.431Z,6.28
2019-05-03T08:20:31.139Z,5.10
2019-05-03T08:23:24.420Z,4.17
2019-05-03T08:25:55.748Z,3.92
2019-05-03T08:28:36.412Z,4.58
2019-05-03T08:31:35.553Z,4.70
2019-05-03T08:34:25.595Z,4.33
2019-05-03T08:38:50.850Z,4.62
2019-05-03T08:41:35.255Z,4.58
2019-05-03T08:44:11.211Z,4.70
2019-05-03T08:46:56.565Z,4.78
2019-05-03T08:49:31.442Z,4.77
2019-05-03T08:52:06.186Z,5.17
2019-05-03T08:54:38.151Z,5.08
2019-05-03T08:57:15.902Z,6.10
2019-05-03T08:59:54.972Z,6.60
2019-05-03T09:02:30.000Z,6.45
2019-05-03T09:05:05.140Z,6.85
2019-05-03T09:07:37.602Z,6.62
2019-05-03T09:10:24.912Z,7.20
2019-05-03T09:13:07.422Z,5.45
2019-05-03T09:15:44.548Z,5.22
2019-05-03T09:18:17.618Z,5.90
2019-05-03T09:20:50.771Z,6.20
2019-05-03T09:23:26.065Z,7.58
2019-05-03T09:26:06.809Z,7.15
2019-05-03T09:28:39.825Z,7.83
2019-05-03T09:31:12.699Z,8.38
2019-05-03T09:33:46.468Z,7.97
2019-05-03T09:36:21.571Z,8.98
2019-05-03T09:38:55.050Z,8.55
2019-05-03T09:41:30.398Z,7.67
2019-05-03T09:44:06.791Z,8.38
2019-05-03T09:46:48.444Z,7.42
2019-05-03T09:49:25.435Z,6.53
2019-05-03T09:52:02.491Z,5.72
2019-05-03T09:54:45.429Z,6.05
2019-05-03T09:57:17.387Z,5.05
2019-05-03T09:59:57.098Z,4.62
2019-05-03T10:02:35.285Z,4.10
2019-05-03T10:05:15.491Z,4.30
2019-05-03T10:07:48.670Z,4.62
2019-05-03T10:10:22.217Z,4.40
2019-05-03T10:12:55.930Z,4.60
2019-05-03T10:15:46.368Z,4.50
2019-05-03T10:18:21.436Z,4.12
2019-05-03T10:20:57.447Z,5.87
2019-05-03T10:23:36.746Z,5.58
2019-05-03T10:26:16.508Z,6.20
2019-05-03T10:28:49.353Z,5.03
2019-05-03T10:31:28.015Z,4.10
2019-05-03T10:34:05.826Z,4.25
2019-05-03T10:36:38.904Z,3.33
2019-05-03T10:39:10.959Z,2.98
2019-05-03T10:41:45.506Z,3.00
2019-05-03T10:44:17.463Z,2.92
2019-05-03T10:46:49.485Z,2.05
2019-05-03T10:49:24.534Z,1.80
2019-05-03T10:51:59.065Z,2.17
2019-05-03T10:54:31.054Z,2.22
2019-05-03T10:57:09.306Z,1.95
2019-05-03T10:59:41.298Z,2.10
2019-05-03T11:02:28.182Z,2.42
2019-05-03T11:05:01.095Z,2.02
2019-05-03T11:07:39.145Z,1.70
2019-05-03T11:10:12.016Z,1.98
2019-05-03T11:12:44.056Z,2.33
2019-05-03T11:15:16.603Z,2.20
2019-05-03T11:17:55.861Z,2.30
2019-05-03T11:20:38.785Z,2.47
2019-05-03T11:23:14.588Z,2.45
2019-05-03T11:25:48.942Z,2.50
2019-05-03T11:28:24.920Z,2.10
2019-05-03T11:31:02.316Z,2.42
2019-05-03T11:33:45.773Z,2.70
2019-05-03T11:36:22.272Z,2.62
2019-05-03T11:38:55.850Z,2.50
2019-05-03T11:41:32.996Z,2.87
2019-05-03T11:44:24.576Z,2.65
2019-05-03T11:46:57.903Z,2.90
2019-05-03T11:49:34.488Z,3.37
2019-05-03T11:52:09.747Z,3.42
2019-05-03T11:54:47.586Z,3.02
2019-05-03T11:57:23.988Z,2.80
2019-05-03T12:00:01.330Z,2.70
2019-05-03T12:02:35.831Z,2.42
2019-05-03T12:05:11.632Z,3.10
2019-05-03T12:07:49.163Z,2.95
2019-05-03T12:10:36.788Z,2.35
2019-05-03T12:13:08.212Z,2.08
2019-05-03T12:15:44.601Z,2.10
2019-05-03T12:18:17.313Z,2.08
2019-05-03T12:20:52.247Z,1.98
2019-05-03T12:23:26.531Z,2.10
2019-05-03T12:26:01.850Z,2.35
2019-05-03T12:28:48.768Z,2.25
2019-05-03T12:31:36.287Z,2.10
2019-05-03T12:34:02.885Z,2.10
2019-05-03T12:36:39.049Z,2.87
2019-05-03T12:39:24.167Z,2.50
2019-05-03T12:41:54.891Z,3.05
2019-05-03T12:44:27.912Z,2.77
2019-05-03T12:47:06.012Z,2.20
2019-05-03T12:49:38.430Z,2.65
2019-05-03T12:52:12.285Z,2.42
2019-05-03T12:54:44.455Z,2.60
2019-05-03T12:57:17.424Z,2.50
2019-05-03T12:59:58.283Z,2.30
2019-05-03T13:02:55.090Z,2.50
2019-05-03T13:05:29.402Z,2.52
2019-05-03T13:08:24.302Z,2.77
2019-05-03T13:10:56.320Z,2.27
2019-05-03T13:13:29.818Z,2.50
2019-05-03T13:16:04.614Z,2.50
2019-05-03T13:18:45.789Z,2.37
2019-05-03T13:21:18.642Z,2.33
2019-05-03T13:23:54.776Z,2.30
2019-05-03T13:26:35.101Z,2.45
2019-05-03T13:29:11.399Z,2.52
2019-05-03T13:31:58.336Z,2.55
2019-05-03T13:34:24.802Z,2.40
2019-05-03T13:36:56.858Z,2.30
2019-05-03T13:39:37.785Z,2.30
2019-05-03T13:42:09.764Z,1.72
2019-05-03T13:44:45.592Z,2.02
2019-05-03T13:47:26.069Z,2.20
2019-05-03T13:49:59.326Z,2.25
2019-05-03T13:52:34.468Z,2.33
2019-05-03T13:55:08.894Z,2.30
2019-05-03T13:57:40.930Z,2.00
2019-05-03T14:00:15.246Z,2.45
2019-05-03T14:02:48.887Z,2.25
2019-05-03T14:05:24.543Z,2.30
2019-05-03T14:08:00.363Z,2.47
2019-05-03T14:10:32.327Z,2.72
2019-05-03T14:13:05.596Z,2.83
2019-05-03T14:15:39.489Z,2.87
2019-05-03T14:18:16.103Z,2.62
2019-05-03T14:20:49.999Z,2.22
2019-05-03T14:23:25.376Z,2.27
2019-05-03T14:25:57.880Z,2.20
2019-05-03T14:28:35.390Z,2.15
2019-05-03T14:31:12.015Z,2.40
2019-05-03T14:33:49.534Z,2.10
2019-05-03T14:36:25.696Z,2.22
2019-05-03T14:38:59.209Z,2.40
2019-05-03T14:41:42.069Z,2.20
2019-05-03T14:44:17.932Z,2.20
2019-05-03T14:46:51.878Z,2.33
2019-05-03T14:49:25.506Z,2.55
2019-05-03T14:51:57.527Z,2.37
2019-05-03T14:54:31.223Z,2.37
2019-05-03T14:57:07.840Z,2.02
2019-05-03T15:00:02.291Z,2.22
2019-05-03T15:02:51.209Z,2.45
2019-05-03T15:05:25.313Z,2.15
2019-05-03T15:07:58.974Z,2.45
2019-05-03T15:10:34.887Z,2.33
2019-05-03T15:13:06.938Z,2.37
2019-05-03T15:15:38.907Z,2.45
2019-05-03T15:18:10.909Z,2.65
2019-05-03T15:20:45.886Z,2.30
2019-05-03T15:23:18.288Z,2.50
2019-05-03T15:25:51.237Z,2.67
2019-05-03T15:28:25.238Z,2.62
2019-05-03T15:33:35.354Z,2.42
2019-05-03T15:36:07.646Z,2.12
2019-05-03T15:38:42.829Z,2.58
2019-05-03T15:41:16.278Z,3.00
2019-05-03T15:44:06.207Z,2.70
2019-05-03T15:46:47.191Z,2.10
2019-05-03T15:49:19.251Z,2.85
2019-05-03T15:51:52.656Z,2.60
2019-05-03T15:54:24.929Z,2.60
2019-05-03T15:56:57.805Z,2.40
2019-05-03T15:59:31.312Z,2.92
2019-05-03T16:02:07.554Z,2.90
2019-05-03T16:04:42.628Z,2.92
2019-05-03T16:07:18.391Z,2.67
2019-05-03T16:09:51.581Z,2.90
2019-05-03T16:12:23.941Z,2.77
2019-05-03T16:14:56.632Z,2.98
2019-05-03T16:17:31.307Z,3.00
2019-05-03T16:20:11.657Z,2.70
2019-05-03T16:22:49.540Z,2.70
2019-05-03T16:25:21.995Z,3.05
2019-05-03T16:28:00.532Z,2.67
2019-05-03T16:30:37.257Z,2.50
2019-05-03T16:33:23.918Z,2.65
2019-05-03T16:35:44.794Z,3.30
2019-05-03T16:38:19.802Z,2.77
2019-05-03T16:40:55.298Z,2.70
2019-05-03T16:43:28.085Z,3.12
2019-05-03T16:46:00.056Z,2.85
2019-05-03T16:48:32.404Z,3.22
2019-05-03T16:51:04.378Z,3.10
2019-05-03T16:53:37.059Z,2.72
2019-05-03T16:56:12.516Z,3.62
2019-05-03T16:58:48.816Z,3.22
2019-05-03T17:01:25.752Z,2.92
2019-05-03T17:03:59.372Z,3.20
2019-05-03T17:06:34.892Z,3.25
2019-05-03T17:09:26.023Z,3.35
2019-05-03T17:12:09.753Z,2.70
2019-05-03T17:14:46.110Z,3.55
2019-05-03T17:17:20.987Z,3.15
2019-05-03T17:19:55.101Z,3.02
2019-05-03T17:22:34.357Z,3.33
2019-05-03T17:25:10.912Z,3.10
2019-05-03T17:27:48.436Z,3.00
2019-05-03T17:30:33.819Z,3.52
2019-05-03T17:33:04.453Z,3.27
2019-05-03T17:35:45.981Z,3.70
2019-05-03T17:38:35.249Z,3.83
2019-05-03T17:41:14.901Z,3.37
2019-05-03T17:43:48.663Z,3.60
2019-05-03T17:46:22.239Z,3.95
2019-05-03T17:48:57.752Z,3.70
2019-05-03T17:51:45.472Z,3.55
2019-05-03T17:54:30.182Z,3.87
2019-05-03T17:57:11.225Z,3.80
2019-05-03T17:59:51.565Z,4.15
2019-05-03T18:02:41.461Z,4.50
2019-05-03T18:05:36.598Z,3.80
2019-05-03T18:08:10.623Z,4.75
2019-05-03T18:10:47.799Z,3.92
2019-05-03T18:13:21.299Z,4.40
2019-05-03T18:15:59.638Z,4.20
2019-05-03T18:18:31.919Z,4.25
2019-05-03T18:21:08.579Z,3.70
2019-05-03T18:23:45.511Z,3.92
2019-05-03T18:26:20.026Z,4.55
2019-05-03T18:28:55.175Z,4.58
2019-05-03T18:31:30.768Z,4.60
2019-05-03T18:34:06.236Z,5.42
2019-05-03T18:36:46.089Z,4.60
2019-05-03T18:39:21.347Z,4.75
2019-05-03T18:42:08.375Z,5.00
2019-05-03T18:45:04.611Z,5.45
2019-05-03T18:47:39.849Z,4.65
2019-05-03T18:50:13.453Z,4.90
2019-05-03T18:52:45.410Z,5.05
2019-05-03T18:55:18.903Z,4.90
2019-05-03T18:57:57.040Z,5.28
2019-05-03T19:00:35.473Z,4.97
2019-05-03T19:03:07.594Z,4.95
2019-05-03T19:05:45.550Z,5.42
2019-05-03T19:08:21.991Z,5.35
2019-05-03T19:11:01.577Z,5.22
2019-05-03T19:13:55.266Z,5.35
2019-05-03T19:16:31.705Z,5.20
2019-05-03T19:19:08.949Z,5.17
2019-05-03T19:21:45.400Z,5.58
2019-05-03T19:24:21.560Z,5.62
2019-05-03T19:26:59.217Z,5.85
2019-05-03T19:29:36.633Z,5.30
2019-05-03T19:32:16.265Z,6.17
2019-05-03T19:34:54.908Z,6.00
2019-05-03T19:37:28.718Z,5.45
2019-05-03T19:40:02.533Z,5.67
2019-05-03T19:42:36.007Z,5.33
2019-05-03T19:45:09.205Z,5.97
2019-05-03T19:47:41.487Z,6.35
2019-05-03T19:50:18.924Z,5.67
2019-05-03T19:53:05.134Z,5.20
2019-05-03T19:55:44.859Z,5.50
2019-05-03T19:58:19.133Z,6.10
2019-05-03T20:00:54.889Z,5.37
2019-05-03T20:03:36.381Z,5.62
2019-05-03T20:06:32.081Z,5.60
2019-05-03T20:09:11.415Z,6.33
2019-05-03T20:11:46.657Z,6.05
2019-05-03T20:14:20.901Z,5.80
2019-05-03T20:16:56.728Z,5.80
2019-05-03T20:19:29.934Z,6.08
2019-05-03T20:22:05.135Z,6.10
2019-05-03T20:24:41.050Z,6.85
2019-05-03T20:27:15.019Z,6.25
2019-05-03T20:29:47.514Z,6.47
2019-05-03T20:32:20.751Z,6.92
2019-05-03T20:34:55.136Z,6.60
2019-05-03T20:37:28.994Z,7.35
2019-05-03T20:40:00.956Z,7.37
2019-05-03T20:42:51.629Z,8.63
2019-05-03T20:48:52.807Z,8.60
2019-05-03T20:51:30.369Z,9.18
2019-05-03T20:54:04.844Z,8.68
2019-05-03T20:56:37.569Z,9.63
2019-05-03T20:59:09.529Z,9.70
2019-05-03T21:01:42.854Z,11.18
2019-05-03T21:04:15.485Z,11.50
2019-05-03T21:06:50.624Z,12.13
2019-05-03T21:09:23.054Z,12.63
2019-05-03T21:12:00.768Z,13.35
2019-05-03T21:14:34.886Z,12.10
2019-05-03T21:17:14.935Z,12.78
2019-05-03T21:19:57.812Z,13.00
2019-05-03T21:22:36.122Z,13.20
2019-05-03T21:25:15.337Z,14.20
2019-05-03T21:27:50.458Z,13.95
2019-05-03T21:30:26.201Z,14.60
2019-05-03T21:33:01.950Z,13.90
2019-05-03T21:35:41.857Z,13.80
2019-05-03T21:38:16.852Z,14.75
2019-05-03T21:40:54.528Z,14.75
2019-05-03T21:43:27.642Z,15.58
2019-05-03T21:46:08.684Z,15.37
2019-05-03T21:48:48.867Z,15.05
2019-05-03T21:51:24.383Z,16.30
2019-05-03T21:54:25.465Z,15.75
2019-05-03T21:57:00.047Z,17.35
2019-05-03T21:59:36.279Z,18.48
2019-05-03T22:04:08.841Z,17.25
2019-05-03T22:06:45.964Z,19.77
2019-05-03T22:09:18.203Z,20.05
2019-05-03T22:11:54.881Z,20.30
2019-05-03T22:14:49.037Z,21.90
2019-05-03T22:18:39.900Z,20.23
2019-05-03T22:21:34.619Z,22.55
2019-05-03T22:24:25.231Z,23.38
2019-05-03T22:27:04.831Z,25.70
2019-05-03T22:29:56.454Z,23.67
2019-05-03T22:32:35.475Z,24.72
2019-05-03T22:35:10.457Z,24.82
2019-05-03T22:37:56.952Z,23.50
2019-05-03T22:40:30.452Z,24.15
2019-05-03T22:43:08.025Z,23.65
2019-05-03T22:45:45.590Z,24.02
2019-05-03T22:48:26.414Z,22.48
2019-05-03T22:51:00.258Z,22.62
2019-05-03T22:53:37.322Z,23.30
2019-05-03T22:56:14.804Z,23.10
2019-05-03T22:58:54.812Z,22.42
2019-05-03T23:01:30.012Z,22.75
2019-05-03T23:04:02.001Z,22.30
2019-05-03T23:06:33.980Z,23.57
2019-05-03T23:09:07.049Z,22.22
2019-05-03T23:11:45.027Z,22.37
2019-05-03T23:14:22.357Z,21.97
2019-05-03T23:17:01.062Z,21.30
2019-05-03T23:19:36.222Z,23.30
2019-05-03T23:22:16.791Z,21.50
2019-05-03T23:24:54.794Z,21.15
2019-05-03T23:27:32.912Z,22.05
2019-05-03T23:30:11.601Z,23.02
2019-05-03T23:32:45.309Z,20.80
2019-05-03T23:35:19.774Z,22.00
2019-05-03T23:37:54.334Z,21.57
2019-05-03T23:40:29.287Z,21.42
2019-05-03T23:45:37.066Z,20.35
2019-05-03T23:48:10.953Z,19.73
2019-05-03T23:50:44.638Z,20.70
2019-05-03T23:53:19.604Z,20.65
2019-05-03T23:56:01.782Z,19.75
2019-05-03T23:58:35.426Z,20.23
